Time;durP1;ratioP1;P1;durP2;ratioP2;P2;SDS_P1;SDS_P2;PMS_P1;PMS_P2;Temp;Humidity;BMP_temperature;BMP_pressure;BME280_temperature;BME280_humidity;BME280_pressure;Samples;Min_cycle;Max_cycle;Signal;HPM_P1;HPM_P2
2022/12/07 00:01:13;;;;;;;3.88;1.88;;;22.10;56.90;;;;;;5052490;28;20029;-69
2022/12/07 00:03:41;;;;;;;2.70;2.10;;;22.10;56.80;;;;;;5034518;28;20179;-69
2022/12/07 00:06:09;;;;;;;2.13;1.92;;;22.10;56.70;;;;;;5051209;28;20029;-69
2022/12/07 00:08:36;;;;;;;3.00;2.08;;;22.10;56.60;;;;;;5052378;28;20492;-69
2022/12/07 00:11:14;;;;;;;2.97;2.28;;;22.20;56.70;;;;;;5052603;28;20145;-69
2022/12/07 00:13:41;;;;;;;2.80;2.05;;;22.00;56.60;;;;;;5052256;28;20339;-69
2022/12/07 00:16:10;;;;;;;2.22;2.03;;;22.00;56.80;;;;;;5052113;28;20087;-69
2022/12/07 00:18:36;;;;;;;3.65;2.30;;;22.00;57.10;;;;;;5052535;28;20029;-69
2022/12/07 00:21:07;;;;;;;4.07;2.05;;;22.00;56.90;;;;;;5052513;28;20043;-69
2022/12/07 00:23:33;;;;;;;3.30;2.35;;;22.00;57.10;;;;;;5051901;28;20029;-69
2022/12/07 00:26:07;;;;;;;2.10;1.90;;;22.00;57.20;;;;;;5052240;28;20029;-68
2022/12/07 00:28:33;;;;;;;2.25;1.85;;;22.00;57.10;;;;;;5051837;28;20504;-69
2022/12/07 00:31:11;;;;;;;3.22;2.55;;;22.00;57.00;;;;;;5051800;28;20035;-69
2022/12/07 00:33:38;;;;;;;3.45;2.95;;;22.00;57.00;;;;;;5016272;28;20056;-68
2022/12/07 00:36:08;;;;;;;3.22;2.95;;;22.00;56.90;;;;;;5051245;28;20067;-68
2022/12/07 00:38:36;;;;;;;5.72;2.95;;;21.90;56.90;;;;;;5051117;28;20090;-68
2022/12/07 00:41:05;;;;;;;5.53;3.15;;;21.90;57.00;;;;;;5032081;28;20044;-68
2022/12/07 00:43:32;;;;;;;4.35;2.90;;;21.90;57.00;;;;;;5050499;28;20128;-67
2022/12/07 00:45:58;;;;;;;4.38;3.10;;;21.90;56.90;;;;;;5050883;28;20029;-69
2022/12/07 00:48:24;;;;;;;7.57;3.97;;;22.00;56.80;;;;;;5050623;28;20043;-69
2022/12/07 00:50:51;;;;;;;5.60;3.15;;;22.00;56.80;;;;;;5050786;28;20057;-68
2022/12/07 00:53:17;;;;;;;4.63;3.75;;;22.00;56.60;;;;;;5051071;28;20692;-69
2022/12/07 00:55:44;;;;;;;3.60;2.85;;;22.00;56.40;;;;;;5051061;28;20037;-69
2022/12/07 00:58:10;;;;;;;4.63;3.10;;;21.90;56.50;;;;;;5015819;28;20064;-69
2022/12/07 01:00:38;;;;;;;6.70;3.97;;;21.90;56.50;;;;;;5051579;28;20382;-69
2022/12/07 01:03:06;;;;;;;6.60;2.95;;;21.90;56.60;;;;;;5033611;28;20397;-69
2022/12/07 01:05:32;;;;;;;5.00;2.90;;;21.90;56.60;;;;;;5051639;28;20044;-69
2022/12/07 01:07:58;;;;;;;4.95;2.80;;;21.90;56.50;;;;;;5051388;28;20036;-69
2022/12/07 01:10:24;;;;;;;4.78;3.13;;;21.80;56.50;;;;;;5051028;28;20057;-67
2022/12/07 01:12:50;;;;;;;3.28;2.42;;;21.80;56.40;;;;;;5051294;28;20123;-69
2022/12/07 01:15:16;;;;;;;5.72;3.45;;;21.90;56.50;;;;;;5052165;28;20032;-69
2022/12/07 01:17:42;;;;;;;5.70;4.00;;;21.80;56.50;;;;;;5070576;28;20115;-68
2022/12/07 01:20:08;;;;;;;5.90;2.83;;;21.80;56.40;;;;;;5071049;28;20028;-69
2022/12/07 01:22:41;;;;;;;4.25;2.88;;;21.80;56.40;;;;;;5071210;28;20060;-68
2022/12/07 01:25:09;;;;;;;3.58;2.90;;;21.80;56.50;;;;;;5070918;28;20063;-69
2022/12/07 01:27:36;;;;;;;3.25;2.40;;;21.90;56.40;;;;;;5070998;28;20040;-68
2022/12/07 01:30:04;;;;;;;4.60;2.67;;;22.00;56.20;;;;;;5071247;28;20028;-69
2022/12/07 01:32:30;;;;;;;4.82;2.55;;;21.90;56.20;;;;;;5070835;28;20115;-68
2022/12/07 01:34:56;;;;;;;5.07;3.40;;;21.90;56.20;;;;;;5070979;28;20170;-68
2022/12/07 01:37:22;;;;;;;6.50;3.03;;;21.90;56.20;;;;;;5070803;28;20032;-69
2022/12/07 01:39:50;;;;;;;4.05;2.60;;;21.80;56.10;;;;;;5070920;28;20036;-68
2022/12/07 01:42:17;;;;;;;3.92;2.97;;;22.00;56.10;;;;;;5071081;28;20037;-66
2022/12/07 01:45:31;;;;;;;4.03;2.85;;;21.90;55.80;;;;;;5070953;28;20564;-69
2022/12/07 01:47:58;;;;;;;3.35;2.95;;;21.90;55.90;;;;;;5069616;28;20350;-69
2022/12/07 01:50:27;;;;;;;3.50;2.78;;;21.80;55.80;;;;;;5050811;28;20041;-69
2022/12/07 01:52:56;;;;;;;5.25;3.30;;;21.70;55.80;;;;;;5070605;28;20489;-69
2022/12/07 01:55:23;;;;;;;5.65;3.25;;;21.80;55.80;;;;;;5070734;28;20105;-69
2022/12/07 01:57:52;;;;;;;4.85;3.03;;;21.70;55.80;;;;;;5070593;28;20090;-68
2022/12/07 02:00:19;;;;;;;4.32;2.83;;;21.70;55.90;;;;;;5070738;28;20036;-69
2022/12/07 02:03:01;;;;;;;3.35;2.47;;;21.80;56.00;;;;;;5019110;28;20067;-68
2022/12/07 02:05:27;;;;;;;2.67;2.40;;;21.70;55.90;;;;;;5070963;28;20060;-69
2022/12/07 02:07:56;;;;;;;7.00;2.60;;;21.80;56.00;;;;;;5070790;28;20037;-69
2022/12/07 02:10:25;;;;;;;3.47;2.40;;;21.80;56.10;;;;;;5070734;28;20060;-68
2022/12/07 02:13:04;;;;;;;3.58;2.50;;;21.60;56.00;;;;;;5070531;28;20118;-69
2022/12/07 02:15:53;;;;;;;4.00;2.67;;;21.70;56.10;;;;;;5070657;28;20040;-69
2022/12/07 02:18:28;;;;;;;3.90;2.75;;;21.70;56.00;;;;;;5070657;28;20089;-69
2022/12/07 02:21:12;;;;;;;3.35;2.30;;;21.80;55.70;;;;;;5070432;28;20033;-68
2022/12/07 02:23:50;;;;;;;2.78;2.58;;;21.70;55.80;;;;;;5070614;28;20048;-67
2022/12/07 02:26:44;;;;;;;4.57;2.35;;;21.70;55.80;;;;;;5052456;28;20048;-68
2022/12/07 02:29:19;;;;;;;3.45;2.50;;;21.70;55.80;;;;;;5072611;28;20128;-68
2022/12/07 02:31:54;;;;;;;3.00;2.50;;;21.80;55.60;;;;;;5074189;28;20044;-69
2022/12/07 02:34:38;;;;;;;3.38;3.05;;;21.80;55.60;;;;;;5074132;28;20103;-69
2022/12/07 02:37:29;;;;;;;5.10;2.75;;;21.60;55.60;;;;;;5074354;28;20048;-68
2022/12/07 02:40:04;;;;;;;3.95;2.53;;;21.60;55.70;;;;;;4972489;28;20047;-68
2022/12/07 02:42:50;;;;;;;3.47;2.60;;;21.60;55.70;;;;;;4972724;28;20058;-68
2022/12/07 02:45:21;;;;;;;4.55;2.92;;;21.50;55.70;;;;;;4972864;28;20058;-69
2022/12/07 02:47:50;;;;;;;2.95;2.50;;;21.50;55.80;;;;;;4972674;28;20070;-69
2022/12/07 02:50:21;;;;;;;4.32;2.65;;;21.50;55.80;;;;;;4972458;28;20034;-69
2022/12/07 02:52:47;;;;;;;4.97;3.00;;;21.50;56.00;;;;;;4972670;28;20039;-68
2022/12/07 02:55:18;;;;;;;3.33;2.38;;;21.40;55.90;;;;;;4972657;28;20421;-69
2022/12/07 02:57:59;;;;;;;3.63;2.70;;;21.40;55.90;;;;;;4972476;28;20046;-68
2022/12/07 03:00:25;;;;;;;3.15;2.60;;;21.50;56.00;;;;;;4972553;28;20038;-69
2022/12/07 03:02:51;;;;;;;3.60;2.70;;;21.50;55.90;;;;;;4972180;28;20039;-69
2022/12/07 03:05:19;;;;;;;3.53;2.58;;;21.40;55.80;;;;;;4972243;28;20035;-68
2022/12/07 03:07:51;;;;;;;4.80;3.05;;;21.50;55.80;;;;;;4972366;28;20045;-69
2022/12/07 03:10:42;;;;;;;2.42;2.22;;;21.50;55.70;;;;;;4989374;28;20133;-68
2022/12/07 03:13:45;;;;;;;3.90;3.08;;;21.50;55.70;;;;;;5011087;28;20789;-68
2022/12/07 03:16:27;;;;;;;3.40;2.70;;;21.60;55.60;;;;;;5022991;28;20097;-68
2022/12/07 03:19:24;;;;;;;2.97;2.55;;;21.50;55.50;;;;;;5093580;28;20032;-69
2022/12/07 03:21:57;;;;;;;5.00;3.13;;;21.60;55.30;;;;;;5078244;28;20039;-68
2022/12/07 03:24:29;;;;;;;3.97;2.80;;;21.50;55.30;;;;;;5073279;28;20032;-69
2022/12/07 03:27:06;;;;;;;4.13;2.85;;;21.50;55.30;;;;;;5073471;28;20385;-69
2022/12/07 03:29:38;;;;;;;4.03;2.80;;;21.50;55.30;;;;;;5073413;28;20470;-69
2022/12/07 03:32:19;;;;;;;3.75;3.13;;;21.50;55.40;;;;;;5073123;28;20048;-69
2022/12/07 03:35:38;;;;;;;3.17;2.88;;;21.50;55.50;;;;;;5072976;28;20082;-69
2022/12/07 03:38:13;;;;;;;3.45;2.90;;;21.40;55.40;;;;;;4974804;28;20026;-68
2022/12/07 03:40:54;;;;;;;3.90;3.50;;;21.30;55.40;;;;;;4990778;28;20092;-68
2022/12/07 03:43:21;;;;;;;3.60;2.88;;;21.40;55.40;;;;;;4991385;28;20089;-69
2022/12/07 03:46:20;;;;;;;5.03;3.00;;;21.20;55.30;;;;;;4958313;28;20081;-68
2022/12/07 03:48:54;;;;;;;3.00;2.55;;;21.40;55.40;;;;;;4991233;28;20057;-69
2022/12/07 03:51:36;;;;;;;3.92;2.88;;;21.40;55.40;;;;;;4992014;28;20042;-69
2022/12/07 03:54:21;;;;;;;3.03;2.40;;;21.30;55.20;;;;;;4990254;28;20618;-67
2022/12/07 03:56:48;;;;;;;3.90;3.22;;;21.40;55.30;;;;;;4990187;28;20031;-69
2022/12/07 03:59:16;;;;;;;4.15;2.95;;;21.40;55.20;;;;;;4990863;28;20081;-69
2022/12/07 04:01:44;;;;;;;3.28;2.92;;;21.40;55.10;;;;;;4990799;28;20057;-68
2022/12/07 04:04:10;;;;;;;4.28;3.20;;;21.40;55.10;;;;;;4990764;28;20093;-69
2022/12/07 04:06:36;;;;;;;8.70;3.40;;;21.40;55.00;;;;;;4989620;28;20101;-67
2022/12/07 04:09:03;;;;;;;4.50;3.53;;;21.50;55.10;;;;;;4989698;28;20038;-69
2022/12/07 04:11:29;;;;;;;8.48;6.32;;;21.50;55.00;;;;;;4996237;28;20048;-68
2022/12/07 04:16:39;;;;;;;5.43;3.83;;;21.60;55.00;;;;;;5072331;28;20029;-68
2022/12/07 04:19:05;;;;;;;6.45;3.63;;;21.40;55.00;;;;;;5072447;28;20032;-69
2022/12/07 04:21:31;;;;;;;4.32;3.42;;;21.40;55.00;;;;;;5072200;28;20381;-69
2022/12/07 04:23:57;;;;;;;3.45;3.13;;;21.30;55.00;;;;;;5072362;28;20072;-68
2022/12/07 04:26:23;;;;;;;4.20;3.80;;;21.40;55.00;;;;;;5071909;28;20445;-69
2022/12/07 04:28:49;;;;;;;6.72;3.80;;;21.20;54.90;;;;;;5072377;28;20043;-68
2022/12/07 04:31:15;;;;;;;5.90;3.83;;;21.20;55.00;;;;;;5072274;28;20367;-67
2022/12/07 04:33:41;;;;;;;5.03;3.95;;;21.20;55.00;;;;;;5072138;28;20071;-68
2022/12/07 04:36:07;;;;;;;9.23;4.85;;;21.20;55.00;;;;;;5071719;28;20119;-69
2022/12/07 04:38:33;;;;;;;5.13;3.13;;;21.30;55.00;;;;;;5052775;28;20059;-69
2022/12/07 04:41:05;;;;;;;5.63;3.65;;;21.40;54.80;;;;;;5071621;28;20040;-69
2022/12/07 04:43:31;;;;;;;6.13;3.53;;;21.40;54.70;;;;;;5072270;28;20116;-68
2022/12/07 04:45:57;;;;;;;4.60;3.42;;;21.50;54.70;;;;;;5071738;28;20039;-69
2022/12/07 04:48:23;;;;;;;5.05;3.35;;;21.50;54.70;;;;;;5071777;28;20033;-68
2022/12/07 04:50:49;;;;;;;4.82;3.67;;;21.50;54.50;;;;;;5070095;28;20029;-68
2022/12/07 04:53:15;;;;;;;5.63;3.60;;;21.50;54.70;;;;;;5071698;28;20085;-69
2022/12/07 04:55:42;;;;;;;5.45;3.92;;;21.60;54.70;;;;;;5087055;28;20450;-69
2022/12/07 04:58:07;;;;;;;4.60;3.28;;;21.40;54.70;;;;;;5071612;28;20534;-69
2022/12/07 05:00:33;;;;;;;6.72;4.15;;;21.50;54.80;;;;;;5071498;28;20032;-69
2022/12/07 05:02:59;;;;;;;8.98;4.50;;;21.50;54.70;;;;;;5071551;28;20115;-68
2022/12/07 05:05:25;;;;;;;6.18;4.55;;;21.60;54.70;;;;;;5071483;28;20031;-69
2022/12/07 05:07:51;;;;;;;6.72;4.15;;;21.70;54.40;;;;;;5071317;28;20040;-68
2022/12/07 05:10:17;;;;;;;7.90;4.32;;;21.60;54.20;;;;;;5062562;28;20060;-68
2022/12/07 05:12:43;;;;;;;5.53;4.45;;;21.70;54.40;;;;;;5051441;28;20025;-68
2022/12/07 05:15:09;;;;;;;6.57;4.18;;;21.60;54.40;;;;;;5051076;28;20466;-69
2022/12/07 05:17:35;;;;;;;4.75;3.50;;;21.70;54.50;;;;;;5051259;28;20543;-69
2022/12/07 05:20:02;;;;;;;5.13;3.63;;;21.60;54.80;;;;;;5051305;28;20125;-69
2022/12/07 05:22:28;;;;;;;5.20;3.78;;;21.70;54.80;;;;;;5051191;28;20393;-69
2022/12/07 05:24:55;;;;;;;10.90;3.97;;;21.80;54.40;;;;;;5051168;28;20393;-72
2022/12/07 05:27:21;;;;;;;7.05;3.42;;;21.90;58.50;;;;;;5036903;28;20031;-74
2022/12/07 05:29:47;;;;;;;4.55;3.67;;;22.40;58.70;;;;;;5051093;28;20033;-71
2022/12/07 05:32:13;;;;;;;5.97;3.55;;;22.80;59.40;;;;;;5016856;28;20060;-72
2022/12/07 05:34:39;;;;;;;6.90;3.60;;;23.00;64.10;;;;;;5051052;28;20033;-71
2022/12/07 05:37:05;;;;;;;5.13;3.95;;;23.10;57.20;;;;;;5051045;28;20586;-72
2022/12/07 05:39:31;;;;;;;9.88;5.63;;;23.10;54.50;;;;;;5050751;28;20338;-69
2022/12/07 05:42:12;;;;;;;8.73;5.82;;;23.10;52.40;;;;;;5050825;28;20423;-70
2022/12/07 05:44:43;;;;;;;8.77;5.50;;;22.70;52.00;;;;;;5050930;28;20032;-71
2022/12/07 05:47:10;;;;;;;7.22;5.70;;;22.60;52.00;;;;;;5032974;28;20092;-72
2022/12/07 05:49:36;;;;;;;6.70;4.90;;;22.50;52.70;;;;;;5050644;28;20374;-72
2022/12/07 05:52:03;;;;;;;6.80;4.53;;;22.30;53.40;;;;;;5050830;28;20036;-72
2022/12/07 05:54:29;;;;;;;6.80;4.80;;;22.30;53.90;;;;;;5051027;28;20037;-70
2022/12/07 05:56:55;;;;;;;8.20;4.97;;;22.30;54.30;;;;;;5050446;28;20021;-68
2022/12/07 05:59:24;;;;;;;7.90;4.93;;;22.20;54.40;;;;;;5050587;28;20033;-68
2022/12/07 06:01:55;;;;;;;6.53;4.78;;;22.20;52.60;;;;;;5034925;28;20416;-69
2022/12/07 06:04:23;;;;;;;6.40;4.35;;;22.10;48.50;;;;;;5053094;28;20037;-69
2022/12/07 06:06:49;;;;;;;4.82;3.72;;;22.10;49.30;;;;;;5054830;28;20060;-67
2022/12/07 06:09:16;;;;;;;6.20;4.03;;;22.10;49.50;;;;;;5054691;28;20033;-69
2022/12/07 06:14:26;;;;;;;9.02;5.65;;;22.20;46.00;;;;;;5054644;28;20028;-67
2022/12/07 06:16:52;;;;;;;6.45;5.22;;;22.20;46.10;;;;;;5054631;28;20326;-68
2022/12/07 06:19:18;;;;;;;7.82;6.47;;;22.30;46.20;;;;;;5054803;28;20036;-69
2022/12/07 06:21:44;;;;;;;7.63;5.13;;;22.10;47.40;;;;;;5054472;28;20036;-68
2022/12/07 06:24:12;;;;;;;6.43;4.82;;;22.10;47.50;;;;;;5036704;28;20045;-67
2022/12/07 06:26:38;;;;;;;5.63;4.85;;;22.30;48.80;;;;;;5020301;28;20102;-68
2022/12/07 06:29:04;;;;;;;7.95;5.63;;;22.20;47.70;;;;;;5054353;28;20037;-68
2022/12/07 06:31:30;;;;;;;10.70;7.00;;;22.20;47.70;;;;;;5054339;28;20085;-69
2022/12/07 06:34:01;;;;;;;15.52;8.35;;;22.10;50.10;;;;;;5054668;28;20034;-68
2022/12/07 06:36:27;;;;;;;8.32;6.38;;;22.20;49.40;;;;;;5054437;28;20089;-69
2022/12/07 06:38:53;;;;;;;11.05;6.80;;;22.10;48.40;;;;;;5011853;28;20045;-69
2022/12/07 06:41:20;;;;;;;11.05;6.53;;;22.10;57.10;;;;;;5011799;28;20046;-69
2022/12/07 06:43:46;;;;;;;8.20;6.15;;;22.40;58.80;;;;;;4995210;28;20414;-70
2022/12/07 06:46:14;;;;;;;10.07;6.43;;;22.40;58.90;;;;;;5012058;28;20072;-68
2022/12/07 06:48:40;;;;;;;9.48;5.43;;;22.30;58.70;;;;;;5011832;28;20034;-66
2022/12/07 06:51:07;;;;;;;10.73;5.72;;;22.30;58.70;;;;;;5011819;28;20038;-67
2022/12/07 06:53:33;;;;;;;12.57;6.05;;;22.20;58.80;;;;;;5011726;28;20128;-68
2022/12/07 06:55:59;;;;;;;7.50;5.95;;;22.30;59.10;;;;;;5012015;28;20045;-68
2022/12/07 06:58:25;;;;;;;8.13;5.95;;;22.20;59.00;;;;;;5011603;28;20038;-69
2022/12/07 07:00:51;;;;;;;10.65;6.70;;;22.20;59.00;;;;;;5011426;28;20038;-68
2022/12/07 07:03:17;;;;;;;8.68;6.80;;;22.10;59.20;;;;;;5011508;28;20661;-69
2022/12/07 07:05:44;;;;;;;5.97;4.57;;;22.10;61.50;;;;;;5011534;28;20046;-70
2022/12/07 07:08:11;;;;;;;9.73;4.55;;;22.00;60.50;;;;;;5011740;28;20038;-69
2022/12/07 07:10:37;;;;;;;7.45;5.20;;;22.10;60.10;;;;;;5045250;28;20059;-71
2022/12/07 07:13:03;;;;;;;5.28;3.42;;;22.10;59.40;;;;;;5018343;28;20083;-69
2022/12/07 07:15:30;;;;;;;7.03;5.07;;;22.40;58.90;;;;;;5039155;28;20021;-68
2022/12/07 07:17:56;;;;;;;5.93;3.95;;;22.30;58.40;;;;;;5059630;28;20078;-69
2022/12/07 07:20:22;;;;;;;12.13;5.20;;;22.50;58.30;;;;;;5055701;28;20041;-69
2022/12/07 07:22:49;;;;;;;8.70;4.65;;;22.50;57.20;;;;;;5065634;28;20520;-70
2022/12/07 07:25:15;;;;;;;7.38;4.88;;;22.60;55.90;;;;;;5008255;28;20660;-73
2022/12/07 07:27:41;;;;;;;7.75;5.47;;;22.60;54.90;;;;;;5007882;28;20045;-69
2022/12/07 07:30:08;;;;;;;4.68;3.20;;;22.70;54.30;;;;;;5004841;28;20074;-70
2022/12/07 07:32:34;;;;;;;9.13;6.65;;;22.70;54.10;;;;;;4987148;28;20038;-72
2022/12/07 07:35:00;;;;;;;10.90;7.30;;;22.70;53.90;;;;;;4987220;28;20400;-68
2022/12/07 07:37:26;;;;;;;9.55;5.47;;;22.70;53.80;;;;;;4987482;28;20484;-68
2022/12/07 07:39:52;;;;;;;14.18;9.07;;;22.80;53.70;;;;;;4988086;28;20582;-69
2022/12/07 07:42:18;;;;;;;15.43;9.32;;;22.80;53.60;;;;;;4988095;28;20173;-72
2022/12/07 07:44:45;;;;;;;19.40;11.35;;;22.80;53.50;;;;;;4971932;28;20097;-70
2022/12/07 07:47:11;;;;;;;12.93;9.95;;;22.70;54.00;;;;;;4990369;28;20034;-71
2022/12/07 07:49:37;;;;;;;15.85;8.95;;;22.60;54.80;;;;;;5007492;28;20038;-72
2022/12/07 07:52:05;;;;;;;10.93;7.93;;;22.60;55.70;;;;;;4991059;28;20087;-67
2022/12/07 07:54:31;;;;;;;8.75;7.20;;;22.50;56.20;;;;;;4990659;28;20184;-68
2022/12/07 07:56:57;;;;;;;7.68;6.22;;;22.50;55.70;;;;;;5056098;28;20055;-66
2022/12/07 07:59:24;;;;;;;9.27;7.63;;;22.50;57.20;;;;;;5069149;28;20048;-69
2022/12/07 08:01:50;;;;;;;14.80;7.90;;;22.50;57.20;;;;;;5050943;28;20086;-70
2022/12/07 08:04:16;;;;;;;10.43;7.38;;;22.50;57.20;;;;;;5065047;28;20039;-71
2022/12/07 08:06:42;;;;;;;10.88;7.70;;;22.50;57.20;;;;;;5069235;28;20032;-68
2022/12/07 08:09:09;;;;;;;13.38;8.30;;;22.50;57.60;;;;;;5069090;28;20078;-70
2022/12/07 08:11:36;;;;;;;16.02;8.20;;;22.60;57.60;;;;;;5069526;28;20051;-70
2022/12/07 08:14:02;;;;;;;13.95;7.90;;;22.60;61.80;;;;;;5046607;28;20044;-71
2022/12/07 08:16:28;;;;;;;11.00;7.30;;;23.00;63.80;;;;;;5046442;28;20152;-70
2022/12/07 08:18:54;;;;;;;11.70;7.15;;;23.30;54.40;;;;;;5046193;28;20553;-69
2022/12/07 08:21:20;;;;;;;9.60;7.00;;;23.40;58.90;;;;;;5048595;28;20040;-71
2022/12/07 08:23:46;;;;;;;13.93;9.35;;;23.50;58.20;;;;;;5066528;28;20100;-69
2022/12/07 08:26:15;;;;;;;15.38;8.63;;;23.50;56.50;;;;;;5067345;28;20399;-67
2022/12/07 08:28:41;;;;;;;15.45;8.57;;;23.40;56.70;;;;;;5069378;28;20039;-69
2022/12/07 08:31:14;;;;;;;11.02;7.63;;;23.30;56.00;;;;;;5069553;28;20044;-68
2022/12/07 08:33:41;;;;;;;12.98;7.80;;;23.10;58.70;;;;;;5069095;28;20115;-66
2022/12/07 08:36:11;;;;;;;9.20;6.72;;;22.90;58.30;;;;;;5069337;28;20048;-71
2022/12/07 08:38:39;;;;;;;9.52;6.70;;;22.90;59.80;;;;;;5048459;28;20033;-71
2022/12/07 08:41:06;;;;;;;10.85;7.50;;;22.80;59.80;;;;;;5049243;28;20044;-67
2022/12/07 08:43:33;;;;;;;8.30;6.63;;;22.80;58.20;;;;;;5048889;28;20578;-70
2022/12/07 08:46:04;;;;;;;11.80;6.55;;;22.70;59.20;;;;;;5032035;28;20455;-67
2022/12/07 08:48:31;;;;;;;10.85;7.70;;;22.80;58.90;;;;;;5048833;28;20045;-66
2022/12/07 08:50:58;;;;;;;10.80;7.22;;;22.80;59.00;;;;;;5049207;28;20183;-72
2022/12/07 08:53:24;;;;;;;10.15;6.35;;;22.90;59.00;;;;;;5050991;28;20441;-74
2022/12/07 08:55:50;;;;;;;7.57;4.97;;;23.00;58.50;;;;;;5051563;28;20073;-69
2022/12/07 08:58:16;;;;;;;9.35;6.10;;;23.00;58.30;;;;;;5051380;28;20029;-67
2022/12/07 09:00:42;;;;;;;11.43;5.80;;;23.00;58.00;;;;;;5051667;28;20084;-69
2022/12/07 09:03:08;;;;;;;10.75;6.28;;;23.20;58.60;;;;;;5051329;28;20437;-70
2022/12/07 09:05:34;;;;;;;11.50;7.10;;;23.20;58.70;;;;;;5051444;28;20037;-68
2022/12/07 09:08:01;;;;;;;8.65;5.75;;;23.20;58.70;;;;;;5051500;28;20087;-70
2022/12/07 09:10:29;;;;;;;7.25;5.40;;;23.20;57.90;;;;;;5051130;28;20103;-68
2022/12/07 09:12:55;;;;;;;9.15;6.28;;;23.20;58.60;;;;;;5051306;28;20086;-70
2022/12/07 09:15:21;;;;;;;10.32;6.00;;;23.30;58.70;;;;;;5052183;28;20028;-71
2022/12/07 09:17:47;;;;;;;8.60;6.03;;;23.30;58.70;;;;;;5052827;28;20033;-70
2022/12/07 09:20:13;;;;;;;8.50;5.85;;;23.20;58.40;;;;;;4999465;28;20051;-70
2022/12/07 09:22:39;;;;;;;6.10;4.78;;;23.50;58.50;;;;;;5063940;28;20550;-70
2022/12/07 09:25:05;;;;;;;5.40;4.15;;;23.50;58.70;;;;;;5071212;28;20032;-70
2022/12/07 09:27:31;;;;;;;14.10;4.90;;;23.50;59.00;;;;;;5071073;28;20028;-70
2022/12/07 09:29:57;;;;;;;7.03;4.40;;;23.50;58.90;;;;;;5071287;28;20469;-72
2022/12/07 09:32:24;;;;;;;6.82;4.57;;;23.50;58.60;;;;;;5070688;28;20025;-67
2022/12/07 09:34:50;;;;;;;10.60;5.50;;;23.60;58.40;;;;;;5071228;28;20028;-69
2022/12/07 09:37:16;;;;;;;7.00;5.03;;;23.50;58.20;;;;;;5070902;28;20044;-72
2022/12/07 09:39:42;;;;;;;6.20;4.70;;;23.60;58.10;;;;;;5071007;28;20396;-71
2022/12/07 09:42:10;;;;;;;7.15;5.40;;;23.50;58.20;;;;;;5070836;28;20040;-69
2022/12/07 09:44:39;;;;;;;7.95;5.30;;;23.60;58.40;;;;;;5070721;28;20032;-68
2022/12/07 09:47:05;;;;;;;9.32;6.00;;;23.60;58.20;;;;;;5070860;28;20108;-69
2022/12/07 09:49:32;;;;;;;6.03;5.07;;;23.70;61.60;;;;;;5070936;28;20169;-69
2022/12/07 09:52:16;;;;;;;6.43;4.85;;;23.90;54.90;;;;;;5051696;28;20040;-71
2022/12/07 09:54:47;;;;;;;6.53;5.15;;;24.10;53.20;;;;;;5050957;28;20040;-71
2022/12/07 09:57:13;;;;;;;6.13;5.05;;;24.10;50.70;;;;;;5050735;28;20029;-72
2022/12/07 09:59:40;;;;;;;8.70;5.50;;;24.20;50.40;;;;;;5050721;28;20037;-70
2022/12/07 10:02:36;;;;;;;6.63;5.10;;;24.30;47.20;;;;;;5015178;28;20041;-66
2022/12/07 10:05:10;;;;;;;6.57;5.43;;;24.30;48.10;;;;;;5050502;28;20044;-67
2022/12/07 10:07:36;;;;;;;9.20;5.25;;;24.40;44.70;;;;;;5063871;28;20119;-67
2022/12/07 10:10:06;;;;;;;9.20;5.80;;;24.40;43.60;;;;;;5070735;28;20123;-66
2022/12/07 10:13:03;;;;;;;8.38;6.15;;;24.40;44.70;;;;;;5070555;28;20116;-67
2022/12/07 10:15:57;;;;;;;6.70;4.90;;;24.40;43.20;;;;;;5070782;28;20028;-71
2022/12/07 10:18:40;;;;;;;7.13;6.10;;;24.40;46.00;;;;;;5070459;28;20056;-66
2022/12/07 10:21:17;;;;;;;;;;;24.30;42.60;;;;;;5070496;28;20378;-66
2022/12/07 10:24:14;;;;;;;8.27;4.90;;;24.40;42.80;;;;;;5031579;28;19958;-68
2022/12/07 10:26:49;;;;;;;7.78;5.38;;;24.40;51.50;;;;;;5047246;28;20045;-66
2022/12/07 10:29:17;;;;;;;8.68;5.63;;;24.40;54.10;;;;;;5050403;28;20045;-68
2022/12/07 10:32:04;;;;;;;7.43;5.72;;;24.30;54.50;;;;;;5050699;28;20025;-67
2022/12/07 10:34:34;;;;;;;8.30;6.18;;;24.40;55.00;;;;;;5050256;28;20496;-67
2022/12/07 10:37:17;;;;;;;7.57;5.70;;;24.30;55.60;;;;;;5050417;28;20436;-69
2022/12/07 10:39:47;;;;;;;7.45;5.28;;;24.30;58.50;;;;;;5050436;28;20033;-69
2022/12/07 10:42:28;;;;;;;9.02;6.30;;;24.40;51.80;;;;;;5032684;28;20076;-69
2022/12/07 10:45:06;;;;;;;9.50;5.65;;;24.70;56.70;;;;;;5050047;28;20096;-69
2022/12/07 10:47:47;;;;;;;8.85;5.50;;;24.80;61.30;;;;;;5050178;28;20464;-69
2022/12/07 10:50:48;;;;;;;8.95;5.93;;;24.80;58.90;;;;;;5052512;28;20040;-67
2022/12/07 10:53:29;;;;;;;7.30;5.50;;;24.60;60.20;;;;;;5053350;28;20037;-68
2022/12/07 10:56:34;;;;;;;8.43;6.43;;;24.90;64.30;;;;;;5053200;28;20057;-67
2022/12/07 10:59:15;;;;;;;9.25;6.25;;;25.10;68.40;;;;;;5053706;28;20071;-66
2022/12/07 11:02:19;;;;;;;7.97;5.65;;;25.10;59.20;;;;;;5053809;28;20036;-66
2022/12/07 11:04:51;;;;;;;9.10;6.13;;;25.00;60.60;;;;;;4952635;29;20055;-65
2022/12/07 11:07:32;;;;;;;7.70;5.47;;;24.90;58.10;;;;;;4953062;28;20489;-65
2022/12/07 11:10:17;;;;;;;7.97;5.72;;;24.70;58.10;;;;;;4964504;28;20051;-66
2022/12/07 11:12:51;;;;;;;6.85;5.53;;;24.70;58.40;;;;;;4975196;28;20145;-66
2022/12/07 11:15:17;;;;;;;7.78;5.00;;;24.60;51.30;;;;;;4975369;28;20141;-68
2022/12/07 11:17:52;;;;;;;23.77;5.97;;;24.60;46.40;;;;;;5007905;28;20368;-68
2022/12/07 11:20:24;;;;;;;6.00;4.82;;;24.50;45.30;;;;;;4991774;28;20034;-68
2022/12/07 11:23:03;;;;;;;5.63;4.45;;;24.50;45.40;;;;;;5005763;28;20050;-68
2022/12/07 11:25:42;;;;;;;6.93;4.93;;;24.60;45.50;;;;;;5011112;28;20046;-69
2022/12/07 11:28:14;;;;;;;9.13;5.75;;;24.50;45.20;;;;;;5010700;28;20061;-68
2022/12/07 11:31:17;;;;;;;8.88;6.30;;;24.70;55.00;;;;;;5011049;28;20049;-69
2022/12/07 11:34:12;;;;;;;;;;;24.60;55.70;;;;;;5011430;28;20057;-69
2022/12/07 11:36:48;;;;;;;10.13;5.38;;;24.70;56.50;;;;;;4952599;29;19961;-68
2022/12/07 11:39:34;;;;;;;9.23;5.18;;;24.50;56.90;;;;;;4952446;29;20432;-69
2022/12/07 11:42:09;;;;;;;7.82;5.45;;;24.60;57.40;;;;;;4984506;28;20096;-69
2022/12/07 11:44:53;;;;;;;9.43;6.20;;;24.50;57.60;;;;;;5010713;28;20049;-69
2022/12/07 11:47:27;;;;;;;8.60;6.10;;;24.50;58.10;;;;;;5010613;28;20218;-67
2022/12/07 11:50:16;;;;;;;7.65;5.70;;;24.50;58.50;;;;;;5010588;28;20034;-69
2022/12/07 11:52:49;;;;;;;6.63;5.45;;;24.40;58.70;;;;;;5010557;28;20506;-69
2022/12/07 11:55:24;;;;;;;6.45;5.32;;;24.30;58.70;;;;;;5010379;28;20379;-69
2022/12/07 11:58:13;;;;;;;7.55;5.55;;;24.30;58.80;;;;;;5010554;28;20040;-69
2022/12/07 12:00:42;;;;;;;9.15;5.47;;;24.30;58.60;;;;;;5010099;28;20042;-68
2022/12/07 12:03:29;;;;;;;6.53;5.28;;;24.20;58.10;;;;;;5010539;28;20105;-67
2022/12/07 12:05:56;;;;;;;7.45;5.38;;;24.10;58.20;;;;;;5010305;28;20507;-68
2022/12/07 12:08:46;;;;;;;8.38;6.10;;;24.00;58.60;;;;;;4994120;28;20026;-68
2022/12/07 12:11:21;;;;;;;9.63;6.15;;;23.90;61.20;;;;;;5010236;28;20550;-68
2022/12/07 12:13:47;;;;;;;5.70;5.10;;;23.90;61.20;;;;;;5062365;28;20148;-66
2022/12/07 12:17:00;;;;;;;9.88;5.47;;;23.90;60.80;;;;;;5072400;28;20119;-68
2022/12/07 12:19:28;;;;;;;6.78;5.55;;;23.80;60.40;;;;;;4990542;28;20073;-70
2022/12/07 12:22:01;;;;;;;9.07;5.78;;;23.90;60.70;;;;;;4990657;28;20213;-69
2022/12/07 12:24:36;;;;;;;8.65;6.68;;;23.90;60.70;;;;;;4990653;28;20042;-67
2022/12/07 12:27:24;;;;;;;7.43;6.15;;;23.90;60.70;;;;;;5009268;28;20026;-67
2022/12/07 12:29:57;;;;;;;52.53;21.20;;;23.90;60.60;;;;;;5009501;28;20057;-68
2022/12/07 12:32:41;;;;;;;9.60;7.10;;;23.80;60.50;;;;;;5010095;28;20053;-71
2022/12/07 12:35:32;;;;;;;9.00;7.03;;;23.90;60.70;;;;;;5009774;28;20046;-70
2022/12/07 12:38:28;;;;;;;9.40;6.55;;;23.80;60.70;;;;;;5009942;28;20092;-70
2022/12/07 12:40:55;;;;;;;9.60;6.50;;;23.80;60.60;;;;;;4989991;28;20073;-70
2022/12/07 12:43:47;;;;;;;10.45;6.32;;;23.80;60.40;;;;;;4989995;28;20126;-71
2022/12/07 12:46:33;;;;;;;9.13;5.95;;;23.80;60.60;;;;;;4989789;28;20369;-70
2022/12/07 12:49:19;;;;;;;9.90;6.50;;;23.80;60.50;;;;;;4973739;28;20045;-71
2022/12/07 12:51:48;;;;;;;10.05;6.10;;;23.80;60.60;;;;;;4989914;28;20431;-71
2022/12/07 12:54:23;;;;;;;8.35;5.40;;;23.80;61.50;;;;;;4989595;28;20046;-71
2022/12/07 12:57:11;;;;;;;8.95;6.13;;;23.80;62.10;;;;;;5049113;28;20429;-69
2022/12/07 12:59:52;;;;;;;8.50;5.63;;;23.60;62.50;;;;;;5049027;28;20094;-69
2022/12/07 13:02:31;;;;;;;8.32;5.80;;;23.70;63.10;;;;;;5048930;28;20597;-69
2022/12/07 13:05:21;;;;;;;7.60;5.88;;;23.80;62.60;;;;;;5015660;28;20037;-69
2022/12/07 13:07:47;;;;;;;11.05;6.72;;;23.90;62.50;;;;;;5048694;28;20119;-69
2022/12/07 13:10:28;;;;;;;8.20;5.88;;;23.70;62.60;;;;;;5051193;28;20570;-69
2022/12/07 13:13:09;;;;;;;10.07;6.47;;;23.90;62.90;;;;;;5048599;28;20040;-68
2022/12/07 13:15:38;;;;;;;8.38;6.40;;;24.00;62.70;;;;;;5048798;28;20029;-69